createdAt,value
2023-03-12T00:00:01.102Z,72.44
2023-03-12T00:01:01.050Z,72.24
2023-03-12T00:02:01.058Z,72.44
2023-03-12T00:03:01.009Z,72.41
2023-03-12T00:04:01.019Z,72.41
2023-03-12T00:05:00.984Z,72.34
2023-03-12T00:06:09.951Z,72.02
2023-03-12T00:07:00.980Z,71.71
2023-03-12T00:08:05.980Z,71.58
2023-03-12T00:09:00.942Z,71.50
2023-03-12T00:10:00.933Z,71.50
2023-03-12T00:11:00.920Z,71.71
2023-03-12T00:12:00.969Z,72.44
2023-03-12T00:13:00.908Z,72.34
2023-03-12T00:14:00.891Z,72.34
2023-03-12T00:15:00.914Z,72.34
2023-03-12T00:16:00.913Z,72.44
2023-03-12T00:17:00.900Z,72.13
2023-03-12T00:18:00.885Z,72.24
2023-03-12T00:19:05.856Z,72.75
2023-03-12T00:20:00.852Z,72.55
2023-03-12T00:21:00.824Z,72.96
2023-03-12T00:22:00.832Z,73.80
2023-03-12T00:23:00.790Z,73.80
2023-03-12T00:24:00.814Z,73.69
2023-03-12T00:25:00.790Z,74.52
2023-03-12T00:26:00.789Z,74.52
2023-03-12T00:27:00.791Z,74.46
2023-03-12T00:28:00.736Z,74.32
2023-03-12T00:29:00.722Z,74.11
2023-03-12T00:30:05.830Z,74.21
2023-03-12T00:31:00.764Z,74.11
2023-03-12T00:32:00.705Z,74.56
2023-03-12T00:33:00.683Z,74.32
2023-03-12T00:34:00.689Z,74.32
2023-03-12T00:35:00.658Z,74.15
2023-03-12T00:36:00.692Z,74.04
2023-03-12T00:37:00.651Z,74.32
2023-03-12T00:38:00.630Z,74.04
2023-03-12T00:39:00.611Z,74.46
2023-03-12T00:40:00.602Z,74.42
2023-03-12T00:41:05.614Z,74.42
2023-03-12T00:42:00.613Z,74.77
2023-03-12T00:43:00.569Z,74.46
2023-03-12T00:44:00.558Z,74.46
2023-03-12T00:45:00.552Z,74.56
2023-03-12T00:46:00.554Z,73.83
2023-03-12T00:47:00.590Z,74.42
2023-03-12T00:48:00.562Z,74.04
2023-03-12T00:49:00.504Z,74.66
2023-03-12T00:50:00.508Z,73.90
2023-03-12T00:51:00.483Z,74.35
2023-03-12T00:52:05.499Z,74.35
2023-03-12T00:53:00.455Z,74.56
2023-03-12T00:54:00.516Z,74.25
2023-03-12T00:55:00.452Z,74.01
2023-03-12T00:56:00.421Z,74.66
2023-03-12T00:57:00.424Z,74.35
2023-03-12T00:58:00.399Z,74.56
2023-03-12T00:59:00.403Z,75.05
2023-03-12T01:00:00.409Z,74.56
2023-03-12T01:01:00.419Z,74.77
2023-03-12T01:02:00.374Z,74.46
2023-03-12T01:03:05.370Z,74.95
2023-03-12T01:04:00.374Z,74.42
2023-03-12T01:05:00.350Z,74.95
2023-03-12T01:06:00.358Z,74.01
2023-03-12T01:07:00.318Z,74.01
2023-03-12T01:08:00.298Z,73.90
2023-03-12T01:09:00.287Z,74.63
2023-03-12T01:10:00.279Z,74.42
2023-03-12T01:11:00.279Z,73.90
2023-03-12T01:12:00.318Z,73.97
2023-03-12T01:13:00.243Z,73.69
2023-03-12T01:14:05.251Z,72.65
2023-03-12T01:15:00.223Z,73.07
2023-03-12T01:16:00.326Z,73.69
2023-03-12T01:17:00.210Z,74.42
2023-03-12T01:18:00.228Z,74.21
2023-03-12T01:19:00.180Z,73.90
2023-03-12T01:20:00.168Z,73.90
2023-03-12T01:21:00.157Z,73.17
2023-03-12T01:22:00.168Z,72.75
2023-03-12T01:23:00.136Z,72.44
2023-03-12T01:24:00.156Z,73.17
2023-03-12T01:25:05.149Z,73.80
2023-03-12T01:26:00.129Z,73.03
2023-03-12T01:27:00.097Z,72.75
2023-03-12T01:28:00.119Z,72.51
2023-03-12T01:29:00.071Z,72.72
2023-03-12T01:30:00.098Z,72.09
2023-03-12T01:31:00.050Z,71.99
2023-03-12T01:32:00.055Z,72.62
2023-03-12T01:33:00.023Z,72.13
2023-03-12T01:34:00.010Z,71.99
2023-03-12T01:35:00.001Z,72.44
2023-03-12T01:36:05.164Z,72.34
2023-03-12T01:36:59.992Z,71.99
2023-03-12T01:37:59.993Z,72.41
2023-03-12T01:38:59.967Z,72.72
2023-03-12T01:39:59.940Z,72.09
2023-03-12T01:40:59.948Z,71.58
2023-03-12T01:41:59.965Z,70.78
2023-03-12T01:42:59.910Z,71.47
2023-03-12T01:43:59.896Z,71.09
2023-03-12T01:44:59.891Z,71.47
2023-03-12T01:45:59.943Z,70.95
2023-03-12T01:47:04.902Z,70.78
2023-03-12T01:47:59.902Z,71.50
2023-03-12T01:48:59.844Z,71.47
2023-03-12T01:49:59.830Z,71.47
2023-03-12T01:50:59.828Z,71.61
2023-03-12T01:52:00.112Z,71.68
2023-03-12T01:52:59.827Z,71.09
2023-03-12T01:53:59.851Z,70.36
2023-03-12T01:54:59.778Z,71.09
2023-03-12T01:55:59.764Z,71.26
2023-03-12T01:56:59.757Z,71.05
2023-03-12T01:58:04.771Z,71.16
2023-03-12T01:58:59.735Z,71.05
2023-03-12T01:59:59.815Z,70.53
2023-03-12T02:00:59.743Z,70.22
2023-03-12T02:01:59.703Z,70.64
2023-03-12T02:02:59.724Z,70.43
2023-03-12T02:03:59.754Z,70.12
2023-03-12T02:04:59.664Z,70.74
2023-03-12T02:05:59.687Z,71.09
2023-03-12T02:06:59.659Z,71.61
2023-03-12T02:07:59.643Z,71.92
2023-03-12T02:09:04.665Z,71.71
2023-03-12T02:09:59.610Z,71.71
2023-03-12T02:10:59.599Z,71.50
2023-03-12T02:11:59.605Z,71.40
2023-03-12T02:12:59.641Z,70.67
2023-03-12T02:13:59.569Z,70.98
2023-03-12T02:14:59.556Z,71.30
2023-03-12T02:15:59.598Z,71.47
2023-03-12T02:16:59.550Z,71.09
2023-03-12T02:17:59.565Z,70.67
2023-03-12T02:18:59.552Z,70.53
2023-03-12T02:20:04.528Z,70.15
2023-03-12T02:20:59.493Z,70.12
2023-03-12T02:21:59.477Z,70.32
2023-03-12T02:22:59.479Z,70.12
2023-03-12T02:23:59.484Z,70.32
2023-03-12T02:24:59.485Z,70.22
2023-03-12T02:25:59.449Z,70.64
2023-03-12T02:26:59.429Z,70.29
2023-03-12T02:27:59.424Z,69.98
2023-03-12T02:28:59.408Z,69.91
2023-03-12T02:29:59.429Z,69.94
2023-03-12T02:31:04.546Z,69.84
2023-03-12T02:31:59.483Z,70.25
2023-03-12T02:32:59.478Z,70.46
2023-03-12T02:33:59.350Z,70.15
2023-03-12T02:34:59.337Z,70.88
2023-03-12T02:35:59.362Z,71.19
2023-03-12T02:36:59.356Z,71.61
2023-03-12T02:37:59.320Z,71.22
2023-03-12T02:38:59.297Z,71.64
2023-03-12T02:39:59.281Z,72.06
2023-03-12T02:40:59.293Z,71.95
2023-03-12T02:42:04.289Z,72.27
2023-03-12T02:42:59.303Z,72.02
2023-03-12T02:43:59.239Z,72.02
2023-03-12T02:44:59.229Z,72.13
2023-03-12T02:45:59.246Z,71.92
2023-03-12T02:46:59.244Z,71.92
2023-03-12T02:47:59.204Z,72.24
2023-03-12T02:48:59.185Z,72.27
2023-03-12T02:49:59.216Z,72.75
2023-03-12T02:50:59.168Z,71.92
2023-03-12T02:51:59.156Z,72.02
2023-03-12T02:53:04.177Z,72.02
2023-03-12T02:53:59.129Z,71.40
2023-03-12T02:54:59.119Z,70.53
2023-03-12T02:55:59.158Z,71.09
2023-03-12T02:56:59.119Z,71.19
2023-03-12T02:57:59.097Z,71.58
2023-03-12T02:58:59.077Z,70.32
2023-03-12T02:59:59.062Z,70.74
2023-03-12T03:00:59.107Z,70.01
2023-03-12T03:01:59.082Z,70.32
2023-03-12T03:02:59.058Z,70.01
2023-03-12T03:04:04.107Z,70.74
2023-03-12T03:04:59.012Z,69.94
2023-03-12T03:05:58.998Z,70.36
2023-03-12T03:06:58.997Z,70.56
2023-03-12T03:07:59.014Z,70.46
2023-03-12T03:08:58.981Z,70.04
2023-03-12T03:09:58.959Z,70.15
2023-03-12T03:10:58.949Z,70.36
2023-03-12T03:11:58.935Z,70.46
2023-03-12T03:12:58.942Z,70.56
2023-03-12T03:13:58.998Z,70.25
2023-03-12T03:15:04.126Z,70.15
2023-03-12T03:15:59.007Z,70.36
2023-03-12T03:16:58.878Z,69.73
2023-03-12T03:17:58.898Z,69.49
2023-03-12T03:18:58.872Z,69.73
2023-03-12T03:19:58.905Z,69.84
2023-03-12T03:20:58.838Z,69.91
2023-03-12T03:21:58.837Z,69.81
2023-03-12T03:22:58.822Z,70.01
2023-03-12T03:23:58.817Z,69.59
2023-03-12T03:24:58.809Z,69.59
2023-03-12T03:26:03.877Z,70.01
2023-03-12T03:26:58.782Z,69.77
2023-03-12T03:27:58.772Z,69.49
2023-03-12T03:28:58.785Z,69.38
2023-03-12T03:29:58.750Z,69.49
2023-03-12T03:30:58.763Z,69.07
2023-03-12T03:31:58.771Z,69.38
2023-03-12T03:32:58.706Z,69.18
2023-03-12T03:33:58.733Z,69.28
2023-03-12T03:34:58.686Z,69.59
2023-03-12T03:35:58.792Z,69.91
2023-03-12T03:37:03.695Z,69.56
2023-03-12T03:37:58.677Z,69.87
2023-03-12T03:38:58.650Z,69.77
2023-03-12T03:39:58.629Z,69.77
2023-03-12T03:40:58.620Z,69.38
2023-03-12T03:41:58.611Z,69.91
2023-03-12T03:42:58.597Z,69.91
2023-03-12T03:43:58.636Z,69.46
2023-03-12T03:44:58.601Z,70.01
2023-03-12T03:45:58.607Z,70.32
2023-03-12T03:46:58.550Z,70.01
2023-03-12T03:48:03.570Z,70.19
2023-03-12T03:48:58.553Z,71.33
2023-03-12T03:49:58.553Z,71.02
2023-03-12T03:50:58.509Z,71.65
2023-03-12T03:51:58.499Z,71.23
2023-03-12T03:52:58.488Z,71.44
2023-03-12T03:53:58.492Z,71.12
2023-03-12T03:54:58.467Z,70.61
2023-03-12T03:55:58.508Z,70.50
2023-03-12T03:56:58.444Z,71.12
2023-03-12T03:57:58.431Z,71.02
2023-03-12T03:59:03.450Z,70.40
2023-03-12T03:59:58.413Z,70.61
2023-03-12T04:00:58.421Z,70.29
2023-03-12T04:01:58.448Z,70.22
2023-03-12T04:02:58.409Z,70.84
2023-03-12T04:03:58.389Z,70.84
2023-03-12T04:04:58.358Z,71.58
2023-03-12T04:05:58.373Z,71.99
2023-03-12T04:06:58.341Z,71.99
2023-03-12T04:07:58.362Z,72.51
2023-03-12T04:08:58.319Z,72.41
2023-03-12T04:10:03.324Z,71.89
2023-03-12T04:10:58.297Z,71.37
2023-03-12T04:11:58.276Z,71.68
2023-03-12T04:12:58.267Z,71.78
2023-03-12T04:13:58.305Z,72.20
2023-03-12T04:14:58.252Z,72.41
2023-03-12T04:15:58.275Z,72.20
2023-03-12T04:16:58.248Z,72.41
2023-03-12T04:17:58.253Z,72.41
2023-03-12T04:18:58.218Z,72.62
2023-03-12T04:19:58.259Z,72.62
2023-03-12T04:21:03.200Z,71.99
2023-03-12T04:21:58.174Z,72.09
2023-03-12T04:22:58.158Z,70.95
2023-03-12T04:23:58.161Z,71.68
2023-03-12T04:24:58.141Z,71.23
2023-03-12T04:25:58.163Z,71.26
2023-03-12T04:26:58.121Z,71.05
2023-03-12T04:27:58.104Z,70.84
2023-03-12T04:28:58.109Z,70.01
2023-03-12T04:29:58.082Z,70.12
2023-03-12T04:30:58.139Z,70.43
2023-03-12T04:32:03.128Z,70.43
2023-03-12T04:32:58.047Z,70.12
2023-03-12T04:33:58.057Z,71.37
2023-03-12T04:34:58.032Z,71.58
2023-03-12T04:35:58.067Z,71.37
2023-03-12T04:36:58.007Z,71.47
2023-03-12T04:37:58.037Z,71.58
2023-03-12T04:38:57.993Z,71.89
2023-03-12T04:39:57.976Z,71.44
2023-03-12T04:40:57.960Z,71.68
2023-03-12T04:41:57.951Z,71.65
2023-03-12T04:43:02.962Z,71.44
2023-03-12T04:43:57.998Z,71.75
2023-03-12T04:44:57.922Z,70.92
2023-03-12T04:45:57.913Z,71.54
2023-03-12T04:46:58.022Z,71.12
2023-03-12T04:47:57.919Z,71.54
2023-03-12T04:48:57.888Z,71.65
2023-03-12T04:49:57.920Z,72.17
2023-03-12T04:50:57.858Z,71.96
2023-03-12T04:51:57.847Z,72.06
2023-03-12T04:52:57.845Z,71.96
2023-03-12T04:54:02.851Z,72.06
2023-03-12T04:54:57.824Z,71.96
2023-03-12T04:55:57.820Z,71.75
2023-03-12T04:56:57.794Z,72.17
2023-03-12T04:57:57.782Z,72.27
2023-03-12T04:58:57.778Z,71.96
2023-03-12T04:59:57.762Z,72.27
2023-03-12T05:00:57.758Z,72.06
2023-03-12T05:01:57.784Z,72.89
2023-03-12T05:02:57.750Z,73.86
2023-03-12T05:03:57.865Z,74.07
2023-03-12T05:05:02.729Z,75.32
2023-03-12T05:05:57.702Z,75.53
2023-03-12T05:06:57.682Z,76.26
2023-03-12T05:07:57.716Z,76.37
2023-03-12T05:08:57.678Z,77.51
2023-03-12T05:09:57.659Z,78.34
2023-03-12T05:10:57.639Z,79.32
2023-03-12T05:11:57.627Z,81.30
2023-03-12T05:12:57.620Z,82.55
2023-03-12T05:13:57.657Z,83.80
2023-03-12T05:14:57.600Z,84.16
2023-03-12T05:16:02.650Z,85.13
2023-03-12T05:16:57.575Z,86.87
2023-03-12T05:17:57.576Z,87.22
2023-03-12T05:18:57.567Z,87.63
2023-03-12T05:19:57.617Z,87.84
2023-03-12T05:20:57.530Z,88.78
2023-03-12T05:21:57.517Z,89.34
2023-03-12T05:22:57.508Z,90.39
2023-03-12T05:23:57.506Z,89.97
2023-03-12T05:24:57.489Z,90.18
2023-03-12T05:25:57.516Z,91.33
2023-03-12T05:27:02.485Z,91.43
2023-03-12T05:27:57.466Z,91.79
2023-03-12T05:28:57.457Z,92.63
2023-03-12T05:29:57.431Z,92.63
2023-03-12T05:30:57.433Z,92.41
2023-03-12T05:31:57.499Z,93.19
2023-03-12T05:32:57.526Z,93.54
2023-03-12T05:33:57.408Z,94.59
2023-03-12T05:34:57.380Z,94.70
2023-03-12T05:35:57.508Z,95.01
2023-03-12T05:36:57.356Z,95.11
2023-03-12T05:38:02.410Z,95.32
2023-03-12T05:38:57.344Z,95.57
2023-03-12T05:39:57.322Z,95.84
2023-03-12T05:40:57.327Z,95.68
2023-03-12T05:41:57.336Z,95.99
2023-03-12T05:42:57.302Z,96.37
2023-03-12T05:43:57.355Z,96.31
2023-03-12T05:44:57.269Z,96.72
2023-03-12T05:45:57.297Z,96.31
2023-03-12T05:46:59.061Z,97.04
2023-03-12T05:47:57.237Z,96.89
2023-03-12T05:49:02.258Z,97.31
2023-03-12T05:49:57.264Z,97.20
2023-03-12T05:50:57.203Z,97.10
2023-03-12T05:51:57.225Z,96.89
2023-03-12T05:52:57.185Z,97.10
2023-03-12T05:53:57.166Z,97.00
2023-03-12T05:54:57.172Z,97.31
2023-03-12T05:55:57.189Z,97.10
2023-03-12T05:56:57.133Z,97.10
2023-03-12T05:57:57.119Z,97.00
2023-03-12T05:58:57.166Z,97.20
2023-03-12T06:00:02.146Z,97.00
2023-03-12T06:00:57.096Z,97.31
2023-03-12T06:01:57.197Z,97.20
2023-03-12T06:02:57.081Z,97.20
2023-03-12T06:03:57.073Z,97.31
2023-03-12T06:04:57.053Z,97.41
2023-03-12T06:05:57.043Z,96.68
2023-03-12T06:06:57.025Z,97.10
2023-03-12T06:07:57.063Z,97.31
2023-03-12T06:08:57.002Z,97.31
2023-03-12T06:09:57.006Z,97.89
2023-03-12T06:11:01.997Z,97.68
2023-03-12T06:11:56.964Z,97.68
2023-03-12T06:12:56.959Z,97.89
2023-03-12T06:13:56.994Z,97.68
2023-03-12T06:14:56.941Z,97.58
2023-03-12T06:15:56.922Z,97.89
2023-03-12T06:16:57.031Z,97.68
2023-03-12T06:17:56.902Z,97.99
2023-03-12T06:18:56.905Z,97.37
2023-03-12T06:19:56.883Z,97.68
2023-03-12T06:20:56.880Z,97.89
2023-03-12T06:22:01.874Z,98.10
2023-03-12T06:22:56.846Z,98.10
2023-03-12T06:23:56.857Z,98.10
2023-03-12T06:24:56.839Z,98.10
2023-03-12T06:25:56.814Z,98.21
2023-03-12T06:26:56.836Z,98.31
2023-03-12T06:27:56.787Z,98.31
2023-03-12T06:28:56.782Z,98.47
2023-03-12T06:29:56.777Z,98.26
2023-03-12T06:30:56.763Z,98.52
2023-03-12T06:31:56.823Z,98.47
2023-03-12T06:33:01.798Z,98.37
2023-03-12T06:33:56.727Z,98.37
2023-03-12T06:34:56.728Z,98.37
2023-03-12T06:35:56.726Z,98.37
2023-03-12T06:36:56.689Z,98.11
2023-03-12T06:37:56.677Z,98.37
2023-03-12T06:38:57.373Z,98.37
2023-03-12T06:39:56.704Z,98.32
2023-03-12T06:40:56.660Z,98.79
2023-03-12T06:41:56.638Z,99.16
2023-03-12T06:42:56.657Z,98.99
2023-03-12T06:44:01.661Z,99.20
2023-03-12T06:44:56.638Z,99.05
2023-03-12T06:45:56.668Z,98.74
2023-03-12T06:46:56.579Z,98.74
2023-03-12T06:47:56.566Z,98.95
2023-03-12T06:48:56.557Z,98.95
2023-03-12T06:49:56.546Z,99.16
2023-03-12T06:50:56.604Z,99.16
2023-03-12T06:51:56.523Z,98.95
2023-03-12T06:52:56.514Z,99.05
2023-03-12T06:53:56.507Z,99.57
2023-03-12T06:55:01.549Z,99.47
2023-03-12T06:55:56.491Z,99.57
2023-03-12T06:56:56.488Z,99.68
2023-03-12T06:57:56.458Z,99.47
2023-03-12T06:58:56.505Z,99.68
2023-03-12T06:59:56.437Z,99.79
2023-03-12T07:00:56.446Z,99.89
2023-03-12T07:01:56.466Z,99.68
2023-03-12T07:02:56.448Z,99.89
2023-03-12T07:03:56.403Z,99.99
2023-03-12T07:04:56.400Z,99.89
2023-03-12T07:06:01.405Z,99.84
2023-03-12T07:06:56.401Z,99.63
2023-03-12T07:07:56.355Z,99.89
2023-03-12T07:08:56.369Z,99.95
2023-03-12T07:09:56.330Z,99.99
2023-03-12T07:10:56.355Z,99.99
2023-03-12T07:11:56.333Z,99.99
2023-03-12T07:12:56.311Z,99.99
2023-03-12T07:13:56.293Z,99.99
2023-03-12T07:14:56.306Z,99.99
2023-03-12T07:15:56.388Z,99.99
2023-03-12T07:17:01.285Z,99.99
2023-03-12T07:17:56.248Z,99.99
2023-03-12T07:18:56.241Z,99.99
2023-03-12T07:19:56.231Z,99.99
2023-03-12T07:20:56.283Z,99.90
2023-03-12T07:21:56.211Z,99.99
2023-03-12T07:22:56.205Z,99.99
2023-03-12T07:23:56.186Z,99.99
2023-03-12T07:24:56.171Z,99.99
2023-03-12T07:25:56.173Z,99.99
2023-03-12T07:26:56.199Z,99.99
2023-03-12T07:28:01.159Z,99.99
2023-03-12T07:28:56.128Z,99.90
2023-03-12T07:29:56.119Z,99.90
2023-03-12T07:30:56.123Z,99.99
2023-03-12T07:31:56.104Z,99.99
2023-03-12T07:32:56.278Z,99.59
2023-03-12T07:33:56.184Z,99.38
2023-03-12T07:34:56.063Z,99.17
2023-03-12T07:35:56.193Z,98.50
2023-03-12T07:36:56.128Z,98.82
2023-03-12T07:37:56.087Z,98.60
2023-03-12T07:39:01.086Z,98.60
2023-03-12T07:39:56.208Z,98.82
2023-03-12T07:40:56.120Z,98.92
2023-03-12T07:41:56.024Z,97.88
2023-03-12T07:42:56.019Z,97.46
2023-03-12T07:43:55.993Z,97.20
2023-03-12T07:44:55.978Z,97.00
2023-03-12T07:45:55.951Z,97.00
2023-03-12T07:46:56.030Z,97.00
2023-03-12T07:47:55.979Z,96.58
2023-03-12T07:48:55.914Z,96.37
2023-03-12T07:50:01.003Z,96.69
2023-03-12T07:50:55.899Z,95.95
2023-03-12T07:51:55.988Z,96.16
2023-03-12T07:52:55.861Z,96.26
2023-03-12T07:53:55.846Z,96.16
2023-03-12T07:54:55.945Z,95.23
2023-03-12T07:55:56.019Z,95.54
2023-03-12T07:56:56.034Z,95.64
2023-03-12T07:57:55.892Z,95.64
2023-03-12T07:58:55.978Z,95.54
2023-03-12T07:59:55.804Z,95.64
2023-03-12T08:01:00.807Z,95.02
2023-03-12T08:01:55.972Z,95.12
2023-03-12T08:02:55.914Z,95.23
2023-03-12T08:03:55.837Z,95.29
2023-03-12T08:04:55.794Z,94.87
2023-03-12T08:05:55.845Z,95.08
2023-03-12T08:06:55.776Z,94.66
2023-03-12T08:07:55.693Z,94.98
2023-03-12T08:08:55.740Z,94.76
2023-03-12T08:09:55.761Z,94.98
2023-03-12T08:10:55.668Z,95.08
2023-03-12T08:12:00.769Z,94.87
2023-03-12T08:12:55.683Z,94.66
2023-03-12T08:13:55.635Z,94.66
2023-03-12T08:14:55.640Z,94.66
2023-03-12T08:15:55.672Z,94.45
2023-03-12T08:16:55.604Z,94.60
2023-03-12T08:17:55.585Z,94.81
2023-03-12T08:18:55.574Z,94.45
2023-03-12T08:19:55.561Z,94.56
2023-03-12T08:20:55.556Z,94.76
2023-03-12T08:21:55.626Z,94.66
2023-03-12T08:23:00.553Z,94.39
2023-03-12T08:23:55.517Z,94.76
2023-03-12T08:24:55.512Z,94.56
2023-03-12T08:25:55.497Z,94.45
2023-03-12T08:26:55.498Z,94.76
2023-03-12T08:27:55.528Z,94.76
2023-03-12T08:28:55.469Z,94.24
2023-03-12T08:29:55.456Z,94.56
2023-03-12T08:30:55.467Z,94.56
2023-03-12T08:32:04.461Z,94.41
2023-03-12T08:32:56.465Z,93.48
2023-03-12T08:34:00.465Z,93.16
2023-03-12T08:34:55.406Z,93.58
2023-03-12T08:35:55.428Z,93.48
2023-03-12T08:36:55.387Z,93.68
2023-03-12T08:37:55.364Z,93.58
2023-03-12T08:38:55.365Z,93.79
2023-03-12T08:39:55.386Z,93.68
2023-03-12T08:40:55.333Z,93.16
2023-03-12T08:41:55.532Z,93.16
2023-03-12T08:42:55.320Z,93.37
2023-03-12T08:43:55.331Z,93.16
2023-03-12T08:45:00.313Z,93.37
2023-03-12T08:45:55.516Z,93.68
2023-03-12T08:46:55.309Z,93.58
2023-03-12T08:47:55.271Z,92.91
2023-03-12T08:48:55.248Z,92.12
2023-03-12T08:49:55.234Z,92.43
2023-03-12T08:50:55.226Z,92.12
2023-03-12T08:51:55.235Z,92.64
2023-03-12T08:52:55.240Z,92.43
2023-03-12T08:53:55.217Z,92.70
2023-03-12T08:54:55.185Z,92.08
2023-03-12T08:56:00.206Z,92.18
2023-03-12T08:56:55.185Z,92.39
2023-03-12T08:57:55.161Z,92.08
2023-03-12T08:58:55.166Z,92.08
2023-03-12T08:59:55.126Z,92.60
2023-03-12T09:00:55.119Z,92.45
2023-03-12T09:01:55.116Z,92.70
2023-03-12T09:02:55.152Z,92.29
2023-03-12T09:03:55.102Z,92.24
2023-03-12T09:04:55.075Z,93.07
2023-03-12T09:05:55.066Z,93.07
2023-03-12T09:07:00.152Z,92.86
2023-03-12T09:07:55.061Z,92.55
2023-03-12T09:08:55.035Z,93.23
2023-03-12T09:09:55.022Z,93.60
2023-03-12T09:10:55.017Z,94.01
2023-03-12T09:11:55.011Z,93.49
2023-03-12T09:12:54.989Z,93.29
2023-03-12T09:14:28.033Z,93.39
2023-03-12T09:15:03.122Z,92.61
2023-03-12T09:15:55.957Z,93.03
2023-03-12T09:16:55.011Z,92.82
2023-03-12T09:17:59.977Z,93.03
2023-03-12T09:18:54.922Z,93.14
2023-03-12T09:19:54.957Z,93.03
2023-03-12T09:20:54.912Z,92.93
2023-03-12T09:21:54.916Z,93.14
2023-03-12T09:22:54.876Z,92.68
2023-03-12T09:23:54.865Z,93.14
2023-03-12T09:24:54.859Z,93.14
2023-03-12T09:25:54.877Z,92.16
2023-03-12T09:26:54.852Z,92.16
2023-03-12T09:27:54.825Z,92.10
2023-03-12T09:28:59.832Z,92.88
2023-03-12T09:30:00.508Z,92.68
2023-03-12T09:30:55.837Z,93.16
2023-03-12T09:31:54.837Z,93.51
2023-03-12T09:32:54.792Z,94.55
2023-03-12T09:33:54.772Z,94.55
2023-03-12T09:34:54.748Z,93.37
2023-03-12T09:35:54.809Z,93.30
2023-03-12T09:36:54.724Z,93.26
2023-03-12T09:37:54.725Z,93.72
2023-03-12T09:38:54.695Z,94.24
2023-03-12T09:39:59.740Z,93.41
2023-03-12T09:40:54.682Z,93.30
2023-03-12T09:41:54.680Z,93.41
2023-03-12T09:42:54.652Z,94.45
2023-03-12T09:43:54.676Z,94.40
2023-03-12T09:44:54.644Z,94.09
2023-03-12T09:45:54.654Z,92.68
2023-03-12T09:46:54.606Z,92.57
2023-03-12T09:47:54.592Z,92.68
2023-03-12T09:48:54.582Z,93.05
2023-03-12T09:49:54.597Z,93.26
2023-03-12T09:50:59.601Z,93.16
2023-03-12T09:51:54.557Z,93.05
2023-03-12T09:52:54.538Z,92.90
2023-03-12T09:53:54.550Z,93.16
2023-03-12T09:54:54.512Z,93.01
2023-03-12T09:55:54.576Z,92.59
2023-03-12T09:56:54.503Z,92.59
2023-03-12T09:57:54.484Z,92.59
2023-03-12T09:58:54.483Z,92.49
2023-03-12T09:59:54.459Z,92.59
2023-03-12T10:00:54.457Z,92.01
2023-03-12T10:01:59.528Z,92.43
2023-03-12T10:02:54.502Z,93.12
2023-03-12T10:03:54.440Z,93.12
2023-03-12T10:04:59.927Z,92.90
2023-03-12T10:05:54.432Z,93.01
2023-03-12T10:06:54.393Z,92.49
2023-03-12T10:07:54.399Z,92.18
2023-03-12T10:08:54.362Z,92.80
2023-03-12T10:09:54.351Z,92.28
2023-03-12T10:10:54.357Z,92.55
2023-03-12T10:11:54.327Z,92.97
2023-03-12T10:12:59.335Z,93.18
2023-03-12T10:13:54.319Z,92.86
2023-03-12T10:14:54.388Z,92.86
2023-03-12T10:15:54.343Z,92.45
2023-03-12T10:16:54.282Z,92.41
2023-03-12T10:17:54.398Z,91.78
2023-03-12T10:18:54.307Z,91.78
2023-03-12T10:19:54.236Z,92.16
2023-03-12T10:20:54.250Z,91.89
2023-03-12T10:21:54.258Z,91.33
2023-03-12T10:22:54.204Z,91.33
2023-03-12T10:23:59.224Z,91.22
2023-03-12T10:24:54.184Z,90.81
2023-03-12T10:25:54.169Z,90.50
2023-03-12T10:26:54.168Z,90.50
2023-03-12T10:27:54.217Z,90.39
2023-03-12T10:28:54.145Z,90.87
2023-03-12T10:29:54.125Z,90.37
2023-03-12T10:30:54.175Z,89.81
2023-03-12T10:31:54.112Z,88.90
2023-03-12T10:32:54.164Z,88.32
2023-03-12T10:33:54.144Z,87.29
2023-03-12T10:34:59.088Z,87.87
2023-03-12T10:35:54.168Z,87.35
2023-03-12T10:36:54.055Z,86.57
2023-03-12T10:37:54.059Z,86.77
2023-03-12T10:38:54.025Z,87.23
2023-03-12T10:39:54.036Z,87.95
2023-03-12T10:40:54.000Z,88.67
2023-03-12T10:41:54.002Z,88.84
2023-03-12T10:42:53.983Z,88.78
2023-03-12T10:43:53.973Z,88.84
2023-03-12T10:44:53.958Z,88.84
2023-03-12T10:45:59.008Z,88.32
2023-03-12T10:46:53.954Z,88.32
2023-03-12T10:47:53.934Z,88.32
2023-03-12T10:48:53.910Z,87.81
2023-03-12T10:49:53.901Z,88.16
2023-03-12T10:50:53.888Z,88.78
2023-03-12T10:51:53.900Z,88.67
2023-03-12T10:52:53.886Z,88.78
2023-03-12T10:53:53.876Z,89.19
2023-03-12T10:54:53.888Z,90.23
2023-03-12T10:55:53.838Z,89.92
2023-03-12T10:56:58.844Z,90.23
2023-03-12T10:57:53.953Z,89.81
2023-03-12T10:58:53.802Z,89.71
2023-03-12T10:59:53.795Z,90.64
2023-03-12T11:00:53.783Z,90.53
2023-03-12T11:01:53.883Z,90.64
2023-03-12T11:02:53.772Z,90.12
2023-03-12T11:03:53.795Z,90.64
2023-03-12T11:04:53.740Z,90.53
2023-03-12T11:05:53.783Z,90.84
2023-03-12T11:06:53.714Z,90.95
2023-03-12T11:07:58.732Z,91.05
2023-03-12T11:09:00.544Z,90.91
2023-03-12T11:09:54.708Z,91.22
2023-03-12T11:10:53.671Z,91.01
2023-03-12T11:11:53.656Z,90.50
2023-03-12T11:12:53.654Z,90.87
2023-03-12T11:13:53.633Z,90.87
2023-03-12T11:14:53.684Z,90.97
2023-03-12T11:15:53.662Z,91.17
2023-03-12T11:16:53.677Z,90.14
2023-03-12T11:17:53.613Z,90.41
2023-03-12T11:18:58.605Z,90.52
2023-03-12T11:19:53.566Z,90.72
2023-03-12T11:20:53.554Z,90.20
2023-03-12T11:21:53.560Z,89.65
2023-03-12T11:22:53.580Z,90.31
2023-03-12T11:23:53.523Z,90.52
2023-03-12T11:24:53.539Z,90.58
2023-03-12T11:25:53.615Z,90.26
2023-03-12T11:26:53.504Z,90.58
2023-03-12T11:27:53.589Z,89.50
2023-03-12T11:28:53.477Z,89.13
2023-03-12T11:29:58.481Z,89.54
2023-03-12T11:30:53.497Z,89.03
2023-03-12T11:31:53.502Z,89.40
2023-03-12T11:32:53.541Z,89.92
2023-03-12T11:33:53.434Z,90.02
2023-03-12T11:34:53.423Z,89.46
2023-03-12T11:35:53.495Z,89.77
2023-03-12T11:36:53.378Z,89.73
2023-03-12T11:37:53.370Z,89.28
2023-03-12T11:38:53.384Z,88.62
2023-03-12T11:39:53.384Z,87.07
2023-03-12T11:40:58.395Z,86.39
2023-03-12T11:41:53.336Z,86.76
2023-03-12T11:42:53.322Z,86.24
2023-03-12T11:43:53.310Z,86.15
2023-03-12T11:44:53.295Z,87.17
2023-03-12T11:45:53.336Z,86.97
2023-03-12T11:46:53.349Z,86.82
2023-03-12T11:47:53.296Z,86.93
2023-03-12T11:48:53.315Z,86.88
2023-03-12T11:49:53.233Z,86.54
2023-03-12T11:50:53.224Z,87.05
2023-03-12T11:51:58.270Z,86.13
2023-03-12T11:52:53.201Z,85.84
2023-03-12T11:53:53.213Z,85.84
2023-03-12T11:54:53.175Z,84.91
2023-03-12T11:55:53.166Z,84.85
2023-03-12T11:56:53.177Z,85.16
2023-03-12T11:57:53.181Z,85.33
2023-03-12T11:58:53.149Z,85.39
2023-03-12T11:59:53.125Z,85.46
2023-03-12T12:00:53.139Z,84.12
2023-03-12T12:01:53.128Z,83.81
2023-03-12T12:02:58.143Z,83.91
2023-03-12T12:03:53.156Z,85.72
2023-03-12T12:04:53.065Z,85.21
2023-03-12T12:05:53.058Z,85.58
2023-03-12T12:06:53.043Z,83.83
2023-03-12T12:07:53.037Z,83.01
2023-03-12T12:08:53.031Z,82.81
2023-03-12T12:09:53.020Z,83.83
2023-03-12T12:10:53.000Z,83.59
2023-03-12T12:11:53.012Z,84.82
2023-03-12T12:12:53.015Z,82.29
2023-03-12T12:13:58.005Z,81.99
2023-03-12T12:14:52.962Z,82.50
2023-03-12T12:15:52.988Z,82.13
2023-03-12T12:16:52.952Z,82.33
2023-03-12T12:17:52.931Z,82.43
2023-03-12T12:18:52.918Z,82.81
2023-03-12T12:19:52.921Z,83.01
2023-03-12T12:20:52.886Z,83.05
2023-03-12T12:21:52.903Z,83.98
2023-03-12T12:22:52.869Z,84.04
2023-03-12T12:23:52.864Z,84.25
2023-03-12T12:24:57.875Z,83.46
2023-03-12T12:25:52.843Z,83.15
2023-03-12T12:26:52.824Z,83.77
2023-03-12T12:27:52.892Z,82.81
2023-03-12T12:28:52.822Z,82.40
2023-03-12T12:29:52.804Z,82.70
2023-03-12T12:30:52.778Z,82.70
2023-03-12T12:31:52.871Z,82.56
2023-03-12T12:32:52.854Z,83.18
2023-03-12T12:33:52.767Z,83.90
2023-03-12T12:34:52.742Z,82.36
2023-03-12T12:35:57.787Z,82.36
2023-03-12T12:36:52.711Z,83.07
2023-03-12T12:37:52.712Z,82.77
2023-03-12T12:38:52.692Z,82.83
2023-03-12T12:39:52.731Z,82.93
2023-03-12T12:40:52.670Z,82.93
2023-03-12T12:41:52.658Z,83.65
2023-03-12T12:42:52.642Z,82.93
2023-03-12T12:43:52.633Z,84.00
2023-03-12T12:44:52.661Z,84.10
2023-03-12T12:45:52.716Z,83.49
2023-03-12T12:46:57.620Z,84.00
2023-03-12T12:47:52.589Z,84.10
2023-03-12T12:48:52.577Z,83.69
2023-03-12T12:49:52.576Z,84.37
2023-03-12T12:50:52.553Z,83.65
2023-03-12T12:51:52.574Z,84.06